Terminal Aerodrome Forecast
Issued by NWS

Home | Current Version | Previous Version | Text Only | Print | Product List | Glossary On
Versions: 1 2 3 4 5 6 7 8 9 10 11 12 13 14
000
FTUS45 KBOU 121724
TAFAPA
TAF
KAPA 121724Z 1218/1318 22006KT P6SM SKC
     FM122100 04006KT P6SM FEW220
     FM130000 13007KT P6SM FEW220
     FM130200 19008KT P6SM SCT220
     FM131700 VRB04KT P6SM SCT220=

USA.gov is the U.S. government's official web portal to all federal, state and local government web resources and services.